createdAt,value
2019-05-12T00:00:48.401Z,1014.36
2019-05-12T00:01:48.120Z,1014.37
2019-05-12T00:02:48.438Z,1014.39
2019-05-12T00:03:48.514Z,1014.29
2019-05-12T00:04:48.696Z,1014.31
2019-05-12T00:05:48.321Z,1014.33
2019-05-12T00:06:47.871Z,1014.38
2019-05-12T00:07:48.793Z,1014.39
2019-05-12T00:08:48.734Z,1014.42
2019-05-12T00:09:47.955Z,1014.41
2019-05-12T00:10:47.838Z,1014.48
2019-05-12T00:11:48.459Z,1014.46
2019-05-12T00:12:48.197Z,1014.45
2019-05-12T00:13:47.802Z,1014.45
2019-05-12T00:14:48.504Z,1014.47
2019-05-12T00:15:47.654Z,1014.42
2019-05-12T00:16:48.952Z,1014.46
2019-05-12T00:17:48.102Z,1014.48
2019-05-12T00:18:48.332Z,1014.45
2019-05-12T00:19:47.946Z,1014.47
2019-05-12T00:20:47.657Z,1014.46
2019-05-12T00:21:48.269Z,1014.47
2019-05-12T00:22:48.153Z,1014.55
2019-05-12T00:23:47.663Z,1014.45
2019-05-12T00:24:47.874Z,1014.52
2019-05-12T00:25:47.996Z,1014.51
2019-05-12T00:26:47.768Z,1014.56
2019-05-12T00:27:48.678Z,1014.54
2019-05-12T00:28:48.238Z,1014.54
2019-05-12T00:29:48.585Z,1014.58
2019-05-12T00:30:48.593Z,1014.57
2019-05-12T00:31:47.784Z,1014.51
2019-05-12T00:32:47.845Z,1014.55
2019-05-12T00:33:48.058Z,1014.57
2019-05-12T00:34:48.030Z,1014.52
2019-05-12T00:35:48.283Z,1014.60
2019-05-12T00:36:48.394Z,1014.54
2019-05-12T00:37:48.568Z,1014.52
2019-05-12T00:38:48.433Z,1014.57
2019-05-12T00:39:47.833Z,1014.59
2019-05-12T00:40:47.922Z,1014.50
2019-05-12T00:41:48.209Z,1014.53
2019-05-12T00:42:48.430Z,1014.60
2019-05-12T00:43:48.285Z,1014.56
2019-05-12T00:44:47.891Z,1014.52
2019-05-12T00:45:48.162Z,1014.61
2019-05-12T00:46:48.571Z,1014.65
2019-05-12T00:47:48.098Z,1014.67
2019-05-12T00:48:48.222Z,1014.65
2019-05-12T00:49:48.013Z,1014.63
2019-05-12T00:50:48.156Z,1014.68
2019-05-12T00:51:48.374Z,1014.66
2019-05-12T00:52:46.126Z,1014.72
2019-05-12T00:53:47.889Z,1014.71
2019-05-12T00:54:48.262Z,1014.71
2019-05-12T00:55:47.657Z,1014.74
2019-05-12T00:56:47.992Z,1014.75
2019-05-12T00:57:48.014Z,1014.74
2019-05-12T00:58:46.035Z,1014.74
2019-05-12T00:59:47.791Z,1014.76
2019-05-12T01:00:48.140Z,1014.80
2019-05-12T01:01:48.064Z,1014.80
2019-05-12T01:02:48.511Z,1014.86
2019-05-12T01:03:48.054Z,1014.83
2019-05-12T01:04:45.949Z,1014.89
2019-05-12T01:05:45.972Z,1014.86
2019-05-12T01:06:45.931Z,1014.85
2019-05-12T01:07:48.210Z,1014.91
2019-05-12T01:08:48.379Z,1014.85
2019-05-12T01:09:45.955Z,1014.91
2019-05-12T01:10:47.840Z,1014.93
2019-05-12T01:11:48.005Z,1014.93
2019-05-12T01:12:45.867Z,1014.90
2019-05-12T01:13:45.852Z,1014.98
2019-05-12T01:14:47.821Z,1014.98
2019-05-12T01:15:48.028Z,1014.96
2019-05-12T01:16:45.819Z,1014.99
2019-05-12T01:17:47.787Z,1015.01
2019-05-12T01:18:47.991Z,1014.99
2019-05-12T01:19:48.468Z,1015.12
2019-05-12T01:20:47.952Z,1015.08
2019-05-12T01:21:47.989Z,1015.06
2019-05-12T01:22:45.751Z,1015.06
2019-05-12T01:23:56.350Z,1015.13
2019-05-12T01:24:48.312Z,1015.12
2019-05-12T01:25:47.815Z,1015.11
2019-05-12T01:26:47.624Z,1015.13
2019-05-12T01:27:48.241Z,1015.16
2019-05-12T01:28:45.680Z,1015.25
2019-05-12T01:29:47.912Z,1015.18
2019-05-12T01:30:47.798Z,1015.21
2019-05-12T01:31:45.652Z,1015.23
2019-05-12T01:32:45.661Z,1015.27
2019-05-12T01:33:45.633Z,1015.24
2019-05-12T01:34:45.619Z,1015.30
2019-05-12T01:35:45.643Z,1015.38
2019-05-12T01:36:45.595Z,1015.34
2019-05-12T01:37:45.577Z,1015.37
2019-05-12T01:38:48.145Z,1015.36
2019-05-12T01:39:45.558Z,1015.38
2019-05-12T01:40:47.507Z,1015.36
2019-05-12T01:41:48.014Z,1015.45
2019-05-12T01:42:45.526Z,1015.46
2019-05-12T01:43:45.517Z,1015.43
2019-05-12T01:44:48.060Z,1015.46
2019-05-12T01:45:45.501Z,1015.44
2019-05-12T01:46:45.542Z,1015.46
2019-05-12T01:47:45.495Z,1015.49
2019-05-12T01:48:45.466Z,1015.50
2019-05-12T01:49:45.459Z,1015.46
2019-05-12T01:50:47.451Z,1015.53
2019-05-12T01:51:47.547Z,1015.54
2019-05-12T01:52:47.698Z,1015.58
2019-05-12T01:53:45.399Z,1015.55
2019-05-12T01:54:45.412Z,1015.60
2019-05-12T01:55:45.389Z,1015.64
2019-05-12T01:56:45.374Z,1015.60
2019-05-12T01:57:45.361Z,1015.70
2019-05-12T01:58:45.361Z,1015.66
2019-05-12T01:59:45.337Z,1015.74
2019-05-12T02:00:45.324Z,1015.71
2019-05-12T02:01:45.310Z,1015.75
2019-05-12T02:02:45.340Z,1015.74
2019-05-12T02:03:45.292Z,1015.73
2019-05-12T02:04:45.328Z,1015.78
2019-05-12T02:05:45.272Z,1015.77
2019-05-12T02:06:45.255Z,1015.76
2019-05-12T02:07:47.775Z,1015.82
2019-05-12T02:08:47.604Z,1015.85
2019-05-12T02:09:45.225Z,1015.83
2019-05-12T02:10:45.210Z,1015.82
2019-05-12T02:11:45.207Z,1015.82
2019-05-12T02:12:45.199Z,1015.84
2019-05-12T02:13:45.177Z,1015.88
2019-05-12T02:14:45.192Z,1015.91
2019-05-12T02:15:45.157Z,1015.88
2019-05-12T02:16:45.149Z,1015.92
2019-05-12T02:17:45.151Z,1015.91
2019-05-12T02:18:45.135Z,1015.85
2019-05-12T02:19:45.116Z,1015.86
2019-05-12T02:20:45.105Z,1015.92
2019-05-12T02:21:45.094Z,1015.93
2019-05-12T02:22:45.102Z,1015.92
2019-05-12T02:23:45.075Z,1015.95
2019-05-12T02:24:45.071Z,1015.95
2019-05-12T02:25:45.053Z,1015.92
2019-05-12T02:26:45.040Z,1015.94
2019-05-12T02:27:45.030Z,1016.00
2019-05-12T02:28:45.015Z,1015.94
2019-05-12T02:29:45.016Z,1015.94
2019-05-12T02:30:45.001Z,1015.93
2019-05-12T02:31:44.989Z,1015.95
2019-05-12T02:32:52.423Z,1015.95
2019-05-12T02:33:45.955Z,1015.93
2019-05-12T02:34:45.761Z,1016.04
2019-05-12T02:35:44.945Z,1016.06
2019-05-12T02:36:45.133Z,1016.09
2019-05-12T02:37:45.343Z,1016.06
2019-05-12T02:38:45.461Z,1016.17
2019-05-12T02:39:45.063Z,1016.13
2019-05-12T02:40:45.028Z,1016.10
2019-05-12T02:41:45.184Z,1016.01
2019-05-12T02:42:46.271Z,1016.09
2019-05-12T02:43:45.777Z,1016.10
2019-05-12T02:44:44.847Z,1016.10
2019-05-12T02:45:44.852Z,1016.11
2019-05-12T02:46:44.957Z,1016.07
2019-05-12T02:47:45.882Z,1016.15
2019-05-12T02:48:45.106Z,1016.19
2019-05-12T02:49:44.992Z,1016.17
2019-05-12T02:50:45.284Z,1016.12
2019-05-12T02:51:45.657Z,1016.21
2019-05-12T02:52:44.754Z,1016.25
2019-05-12T02:53:47.070Z,1016.20
2019-05-12T02:54:54.466Z,1016.19
2019-05-12T02:55:45.756Z,1016.29
2019-05-12T02:56:45.008Z,1016.23
2019-05-12T02:57:45.325Z,1016.22
2019-05-12T02:58:45.370Z,1016.25
2019-05-12T02:59:44.928Z,1016.29
2019-05-12T03:00:45.580Z,1016.25
2019-05-12T03:01:45.299Z,1016.25
2019-05-12T03:02:44.658Z,1016.28
2019-05-12T03:03:44.632Z,1016.24
2019-05-12T03:04:44.620Z,1016.34
2019-05-12T03:05:44.619Z,1016.31
2019-05-12T03:06:44.806Z,1016.33
2019-05-12T03:07:44.910Z,1016.31
2019-05-12T03:08:44.981Z,1016.38
2019-05-12T03:09:44.830Z,1016.37
2019-05-12T03:10:44.946Z,1016.37
2019-05-12T03:11:44.790Z,1016.36
2019-05-12T03:12:45.120Z,1016.38
2019-05-12T03:13:44.963Z,1016.40
2019-05-12T03:14:44.887Z,1016.46
2019-05-12T03:15:44.747Z,1016.40
2019-05-12T03:16:45.356Z,1016.42
2019-05-12T03:17:44.528Z,1016.42
2019-05-12T03:18:45.115Z,1016.45
2019-05-12T03:19:44.936Z,1016.48
2019-05-12T03:20:45.485Z,1016.45
2019-05-12T03:21:44.457Z,1016.46
2019-05-12T03:22:44.978Z,1016.45
2019-05-12T03:23:44.955Z,1016.46
2019-05-12T03:24:44.966Z,1016.51
2019-05-12T03:25:45.578Z,1016.50
2019-05-12T03:26:45.086Z,1016.51
2019-05-12T03:27:44.641Z,1016.58
2019-05-12T03:28:44.793Z,1016.59
2019-05-12T03:29:44.971Z,1016.60
2019-05-12T03:30:48.534Z,1016.61
2019-05-12T03:31:48.702Z,1016.56
2019-05-12T03:32:47.375Z,1016.58
2019-05-12T03:33:52.230Z,1016.56
2019-05-12T03:34:47.335Z,1016.59
2019-05-12T03:35:52.251Z,1016.56
2019-05-12T03:36:50.629Z,1016.62
2019-05-12T03:37:45.457Z,1016.65
2019-05-12T03:38:44.972Z,1016.61
2019-05-12T03:39:44.832Z,1016.66
2019-05-12T03:40:44.981Z,1016.72
2019-05-12T03:41:44.663Z,1016.71
2019-05-12T03:42:44.606Z,1016.73
2019-05-12T03:43:45.003Z,1016.72
2019-05-12T03:44:44.622Z,1016.78
2019-05-12T03:45:45.349Z,1016.76
2019-05-12T03:46:45.619Z,1016.77
2019-05-12T03:47:45.457Z,1016.84
2019-05-12T03:48:45.425Z,1016.82
2019-05-12T03:49:45.435Z,1016.82
2019-05-12T03:50:46.075Z,1016.81
2019-05-12T03:51:45.662Z,1016.83
2019-05-12T03:52:44.970Z,1016.91
2019-05-12T03:53:45.511Z,1016.82
2019-05-12T03:54:45.202Z,1016.89
2019-05-12T03:55:46.955Z,1016.95
2019-05-12T03:56:45.083Z,1016.91
2019-05-12T03:57:45.097Z,1016.94
2019-05-12T03:58:45.236Z,1016.96
2019-05-12T03:59:44.970Z,1016.93
2019-05-12T04:00:44.753Z,1016.98
2019-05-12T04:01:45.031Z,1016.95
2019-05-12T04:02:45.359Z,1017.03
2019-05-12T04:03:45.126Z,1016.98
2019-05-12T04:04:45.345Z,1017.06
2019-05-12T04:05:45.200Z,1017.09
2019-05-12T04:06:45.248Z,1017.02
2019-05-12T04:07:44.998Z,1017.17
2019-05-12T04:08:45.554Z,1017.14
2019-05-12T04:09:45.147Z,1017.16
2019-05-12T04:10:45.368Z,1017.17
2019-05-12T04:11:44.509Z,1017.28
2019-05-12T04:12:44.820Z,1017.26
2019-05-12T04:13:45.241Z,1017.24
2019-05-12T04:14:44.895Z,1017.24
2019-05-12T04:15:45.401Z,1017.37
2019-05-12T04:16:45.160Z,1017.36
2019-05-12T04:17:45.288Z,1017.37
2019-05-12T04:18:45.027Z,1017.42
2019-05-12T04:19:44.702Z,1017.47
2019-05-12T04:20:45.190Z,1017.46
2019-05-12T04:21:44.776Z,1017.48
2019-05-12T04:22:44.618Z,1017.43
2019-05-12T04:23:44.453Z,1017.44
2019-05-12T04:24:44.550Z,1017.52
2019-05-12T04:25:52.362Z,1017.45
2019-05-12T04:26:45.140Z,1017.52
2019-05-12T04:27:45.119Z,1017.51
2019-05-12T04:28:45.567Z,1017.46
2019-05-12T04:29:44.233Z,1017.55
2019-05-12T04:30:44.533Z,1017.60
2019-05-12T04:31:44.364Z,1017.58
2019-05-12T04:32:45.165Z,1017.53
2019-05-12T04:33:45.236Z,1017.56
2019-05-12T04:34:44.667Z,1017.62
2019-05-12T04:35:45.152Z,1017.55
2019-05-12T04:36:44.885Z,1017.60
2019-05-12T04:37:44.990Z,1017.61
2019-05-12T04:38:45.014Z,1017.64
2019-05-12T04:39:44.716Z,1017.68
2019-05-12T04:40:44.956Z,1017.74
2019-05-12T04:41:44.731Z,1017.76
2019-05-12T04:42:45.212Z,1017.77
2019-05-12T04:43:44.732Z,1017.74
2019-05-12T04:44:44.854Z,1017.83
2019-05-12T04:45:45.147Z,1017.82
2019-05-12T04:46:44.997Z,1017.84
2019-05-12T04:47:44.971Z,1017.89
2019-05-12T04:48:45.307Z,1017.95
2019-05-12T04:49:45.164Z,1017.95
2019-05-12T04:50:45.203Z,1017.97
2019-05-12T04:51:45.236Z,1017.99
2019-05-12T04:52:44.527Z,1017.96
2019-05-12T04:53:44.924Z,1018.00
2019-05-12T04:54:44.512Z,1018.05
2019-05-12T04:55:44.601Z,1018.03
2019-05-12T04:56:44.595Z,1018.08
2019-05-12T04:57:45.134Z,1018.03
2019-05-12T04:58:45.066Z,1018.07
2019-05-12T04:59:45.070Z,1018.09
2019-05-12T05:00:44.840Z,1018.12
2019-05-12T05:01:45.300Z,1018.11
2019-05-12T05:02:45.495Z,1018.07
2019-05-12T05:03:44.269Z,1018.09
2019-05-12T05:04:44.134Z,1018.19
2019-05-12T05:05:44.419Z,1018.17
2019-05-12T05:06:44.867Z,1018.22
2019-05-12T05:07:44.801Z,1018.24
2019-05-12T05:08:44.308Z,1018.24
2019-05-12T05:09:44.254Z,1018.31
2019-05-12T05:10:44.364Z,1018.27
2019-05-12T05:11:45.087Z,1018.34
2019-05-12T05:12:44.912Z,1018.37
2019-05-12T05:13:44.382Z,1018.40
2019-05-12T05:14:44.577Z,1018.41
2019-05-12T05:15:44.586Z,1018.40
2019-05-12T05:16:45.130Z,1018.43
2019-05-12T05:17:44.127Z,1018.43
2019-05-12T05:18:43.937Z,1018.49
2019-05-12T05:19:44.122Z,1018.51
2019-05-12T05:20:43.832Z,1018.55
2019-05-12T05:21:43.742Z,1018.56
2019-05-12T05:22:44.008Z,1018.54
2019-05-12T05:23:44.321Z,1018.64
2019-05-12T05:24:44.393Z,1018.63
2019-05-12T05:25:43.534Z,1018.68
2019-05-12T05:26:43.577Z,1018.68
2019-05-12T05:27:44.342Z,1018.65
2019-05-12T05:28:43.634Z,1018.71
2019-05-12T05:29:43.769Z,1018.72
2019-05-12T05:30:44.091Z,1018.70
2019-05-12T05:31:44.181Z,1018.73
2019-05-12T05:32:44.436Z,1018.68
2019-05-12T05:33:43.561Z,1018.77
2019-05-12T05:34:46.013Z,1018.82
2019-05-12T05:35:43.963Z,1018.78
2019-05-12T05:36:43.442Z,1018.81
2019-05-12T05:37:44.171Z,1018.84
2019-05-12T05:38:43.673Z,1018.84
2019-05-12T05:39:49.257Z,1018.89
2019-05-12T05:40:43.892Z,1018.88
2019-05-12T05:41:46.475Z,1018.87
2019-05-12T05:42:44.166Z,1018.98
2019-05-12T05:43:43.759Z,1018.99
2019-05-12T05:44:43.468Z,1018.96
2019-05-12T05:45:43.860Z,1019.06
2019-05-12T05:46:47.713Z,1019.04
2019-05-12T05:47:44.438Z,1019.06
2019-05-12T05:48:43.976Z,1019.12
2019-05-12T05:49:43.448Z,1019.11
2019-05-12T05:50:43.878Z,1019.10
2019-05-12T05:51:46.661Z,1019.09
2019-05-12T05:52:43.950Z,1019.11
2019-05-12T05:53:44.211Z,1019.10
2019-05-12T05:54:44.006Z,1019.12
2019-05-12T05:55:44.227Z,1019.15
2019-05-12T05:56:56.955Z,1019.17
2019-05-12T05:57:44.357Z,1019.19
2019-05-12T05:58:47.114Z,1019.21
2019-05-12T05:59:44.695Z,1019.28
2019-05-12T06:00:43.455Z,1019.26
2019-05-12T06:01:46.894Z,1019.30
2019-05-12T06:02:44.279Z,1019.30
2019-05-12T06:03:44.151Z,1019.37
2019-05-12T06:04:45.415Z,1019.32
2019-05-12T06:05:43.612Z,1019.33
2019-05-12T06:06:50.775Z,1019.37
2019-05-12T06:07:44.341Z,1019.46
2019-05-12T06:08:44.267Z,1019.44
2019-05-12T06:09:43.291Z,1019.50
2019-05-12T06:10:43.507Z,1019.62
2019-05-12T06:11:43.763Z,1019.54
2019-05-12T06:12:48.737Z,1019.56
2019-05-12T06:13:44.307Z,1019.60
2019-05-12T06:14:48.777Z,1019.60
2019-05-12T06:15:43.527Z,1019.58
2019-05-12T06:16:43.359Z,1019.61
2019-05-12T06:17:43.864Z,1019.61
2019-05-12T06:18:43.991Z,1019.62
2019-05-12T06:19:43.763Z,1019.68
2019-05-12T06:20:43.663Z,1019.69
2019-05-12T06:21:44.009Z,1019.71
2019-05-12T06:22:43.769Z,1019.75
2019-05-12T06:23:43.427Z,1019.70
2019-05-12T06:24:44.161Z,1019.76
2019-05-12T06:25:49.380Z,1019.76
2019-05-12T06:26:56.804Z,1019.83
2019-05-12T06:27:44.343Z,1019.81
2019-05-12T06:28:43.972Z,1019.74
2019-05-12T06:29:43.756Z,1019.79
2019-05-12T06:30:45.036Z,1019.76
2019-05-12T06:31:44.131Z,1019.76
2019-05-12T06:32:50.189Z,1019.72
2019-05-12T06:33:44.664Z,1019.83
2019-05-12T06:34:43.561Z,1019.88
2019-05-12T06:35:45.133Z,1019.85
2019-05-12T06:36:44.075Z,1019.84
2019-05-12T06:37:44.324Z,1019.77
2019-05-12T06:38:43.474Z,1019.82
2019-05-12T06:39:43.570Z,1019.76
2019-05-12T06:40:44.700Z,1019.84
2019-05-12T06:41:44.351Z,1019.82
2019-05-12T06:42:43.607Z,1019.88
2019-05-12T06:43:45.177Z,1019.89
2019-05-12T06:44:43.801Z,1019.99
2019-05-12T06:45:45.334Z,1019.93
2019-05-12T06:46:44.113Z,1019.94
2019-05-12T06:47:45.275Z,1019.97
2019-05-12T06:48:45.374Z,1019.90
2019-05-12T06:49:43.955Z,1019.94
2019-05-12T06:50:44.143Z,1019.90
2019-05-12T06:51:44.330Z,1019.98
2019-05-12T06:52:46.802Z,1019.93
2019-05-12T06:53:44.348Z,1019.95
2019-05-12T06:54:51.040Z,1019.89
2019-05-12T06:55:43.384Z,1019.90
2019-05-12T06:56:43.537Z,1019.94
2019-05-12T06:57:45.929Z,1019.98
2019-05-12T06:58:44.258Z,1019.97
2019-05-12T06:59:50.543Z,1020.02
2019-05-12T07:00:43.777Z,1019.99
2019-05-12T07:01:41.982Z,1020.00
2019-05-12T07:02:50.091Z,1019.93
2019-05-12T07:03:44.066Z,1020.01
2019-05-12T07:04:49.792Z,1020.00
2019-05-12T07:05:45.174Z,1020.02
2019-05-12T07:06:44.097Z,1020.02
2019-05-12T07:07:45.745Z,1020.06
2019-05-12T07:08:43.848Z,1020.07
2019-05-12T07:09:53.637Z,1019.95
2019-05-12T07:10:46.031Z,1019.95
2019-05-12T07:11:52.844Z,1019.96
2019-05-12T07:12:58.259Z,1020.03
2019-05-12T07:13:43.637Z,1020.02
2019-05-12T07:14:43.820Z,1019.95
2019-05-12T07:15:43.766Z,1019.95
2019-05-12T07:16:43.755Z,1020.00
2019-05-12T07:17:44.324Z,1019.95
2019-05-12T07:18:43.702Z,1020.02
2019-05-12T07:19:43.599Z,1020.06
2019-05-12T07:20:43.511Z,1019.97
2019-05-12T07:21:43.882Z,1020.03
2019-05-12T07:22:45.816Z,1020.06
2019-05-12T07:23:44.442Z,1020.12
2019-05-12T07:24:50.188Z,1020.09
2019-05-12T07:25:44.442Z,1020.11
2019-05-12T07:26:41.705Z,1020.17
2019-05-12T07:27:47.331Z,1020.16
2019-05-12T07:28:43.376Z,1020.18
2019-05-12T07:29:43.606Z,1020.20
2019-05-12T07:30:43.898Z,1020.17
2019-05-12T07:31:41.649Z,1020.20
2019-05-12T07:32:43.356Z,1020.25
2019-05-12T07:33:45.049Z,1020.25
2019-05-12T07:34:43.634Z,1020.35
2019-05-12T07:35:44.154Z,1020.35
2019-05-12T07:36:41.593Z,1020.34
2019-05-12T07:37:43.626Z,1020.36
2019-05-12T07:38:43.416Z,1020.37
2019-05-12T07:39:47.269Z,1020.38
2019-05-12T07:40:44.387Z,1020.32
2019-05-12T07:41:50.407Z,1020.40
2019-05-12T07:42:43.878Z,1020.37
2019-05-12T07:43:44.162Z,1020.37
2019-05-12T07:44:43.983Z,1020.40
2019-05-12T07:45:41.492Z,1020.34
2019-05-12T07:46:45.649Z,1020.39
2019-05-12T07:47:44.802Z,1020.33
2019-05-12T07:48:46.555Z,1020.36
2019-05-12T07:49:44.104Z,1020.37
2019-05-12T07:50:43.353Z,1020.38
2019-05-12T07:51:41.437Z,1020.45
2019-05-12T07:52:43.985Z,1020.45
2019-05-12T07:53:46.802Z,1020.40
2019-05-12T07:54:44.379Z,1020.45
2019-05-12T07:55:47.446Z,1020.42
2019-05-12T07:56:44.250Z,1020.40
2019-05-12T07:57:52.882Z,1020.46
2019-05-12T07:58:47.489Z,1020.44
2019-05-12T07:59:43.786Z,1020.43
2019-05-12T08:00:41.333Z,1020.40
2019-05-12T08:01:48.644Z,1020.44
2019-05-12T08:02:44.418Z,1020.42
2019-05-12T08:03:43.532Z,1020.44
2019-05-12T08:04:43.892Z,1020.38
2019-05-12T08:05:43.758Z,1020.43
2019-05-12T08:06:42.449Z,1020.46
2019-05-12T08:07:44.502Z,1020.57
2019-05-12T08:08:50.196Z,1020.51
2019-05-12T08:09:43.240Z,1020.45
2019-05-12T08:10:41.218Z,1020.48
2019-05-12T08:11:43.247Z,1020.48
2019-05-12T08:12:41.190Z,1020.53
2019-05-12T08:13:43.662Z,1020.54
2019-05-12T08:14:43.833Z,1020.48
2019-05-12T08:15:45.670Z,1020.49
2019-05-12T08:16:43.748Z,1020.50
2019-05-12T08:17:41.142Z,1020.51
2019-05-12T08:18:41.241Z,1020.56
2019-05-12T08:19:41.193Z,1020.55
2019-05-12T08:20:43.378Z,1020.57
2019-05-12T08:21:42.598Z,1020.52
2019-05-12T08:22:43.839Z,1020.53
2019-05-12T08:23:41.068Z,1020.52
2019-05-12T08:24:43.639Z,1020.52
2019-05-12T08:25:43.769Z,1020.50
2019-05-12T08:26:43.425Z,1020.51
2019-05-12T08:27:45.254Z,1020.54
2019-05-12T08:28:44.140Z,1020.48
2019-05-12T08:29:42.843Z,1020.55
2019-05-12T08:30:49.724Z,1020.63
2019-05-12T08:31:44.044Z,1020.59
2019-05-12T08:32:40.983Z,1020.62
2019-05-12T08:33:43.479Z,1020.54
2019-05-12T08:34:43.582Z,1020.65
2019-05-12T08:35:40.935Z,1020.67
2019-05-12T08:36:45.065Z,1020.68
2019-05-12T08:37:44.177Z,1020.61
2019-05-12T08:38:40.901Z,1020.67
2019-05-12T08:39:40.893Z,1020.67
2019-05-12T08:40:48.754Z,1020.78
2019-05-12T08:41:44.269Z,1020.71
2019-05-12T08:42:43.410Z,1020.74
2019-05-12T08:43:46.901Z,1020.78
2019-05-12T08:44:43.981Z,1020.83
2019-05-12T08:45:40.831Z,1020.80
2019-05-12T08:46:43.241Z,1020.84
2019-05-12T08:47:43.890Z,1020.84
2019-05-12T08:48:40.796Z,1020.83
2019-05-12T08:49:50.097Z,1020.85
2019-05-12T08:50:45.362Z,1020.85
2019-05-12T08:51:40.759Z,1020.92
2019-05-12T08:52:41.973Z,1020.91
2019-05-12T08:53:40.764Z,1020.87
2019-05-12T08:54:45.421Z,1020.90
2019-05-12T08:55:43.591Z,1020.92
2019-05-12T08:56:40.701Z,1020.92
2019-05-12T08:57:46.412Z,1020.94
2019-05-12T08:58:48.198Z,1020.98
2019-05-12T08:59:43.996Z,1021.02
2019-05-12T09:00:46.510Z,1021.01
2019-05-12T09:01:43.721Z,1021.02
2019-05-12T09:02:46.118Z,1020.99
2019-05-12T09:03:44.090Z,1020.97
2019-05-12T09:04:43.125Z,1021.03
2019-05-12T09:05:41.609Z,1021.06
2019-05-12T09:06:40.599Z,1021.06
2019-05-12T09:07:40.585Z,1021.02
2019-05-12T09:08:45.191Z,1020.94
2019-05-12T09:09:43.807Z,1021.11
2019-05-12T09:10:40.594Z,1021.01
2019-05-12T09:11:40.539Z,1021.09
2019-05-12T09:12:40.539Z,1021.07
2019-05-12T09:13:40.519Z,1021.15
2019-05-12T09:14:41.427Z,1021.06
2019-05-12T09:15:43.567Z,1021.10
2019-05-12T09:16:40.496Z,1021.17
2019-05-12T09:17:49.058Z,1021.16
2019-05-12T09:18:43.538Z,1021.10
2019-05-12T09:19:40.454Z,1021.11
2019-05-12T09:20:48.896Z,1021.18
2019-05-12T09:21:44.046Z,1021.20
2019-05-12T09:22:40.429Z,1021.22
2019-05-12T09:23:41.453Z,1021.20
2019-05-12T09:24:40.407Z,1021.18
2019-05-12T09:25:45.310Z,1021.14
2019-05-12T09:26:43.325Z,1021.20
2019-05-12T09:27:45.650Z,1021.22
2019-05-12T09:28:47.487Z,1021.18
2019-05-12T09:29:43.433Z,1021.25
2019-05-12T09:30:47.515Z,1021.14
2019-05-12T09:31:41.319Z,1021.22
2019-05-12T09:32:45.368Z,1021.21
2019-05-12T09:33:41.303Z,1021.20
2019-05-12T09:34:46.946Z,1021.24
2019-05-12T09:35:43.572Z,1021.18
2019-05-12T09:36:40.274Z,1021.25
2019-05-12T09:37:40.664Z,1021.22
2019-05-12T09:38:41.088Z,1021.16
2019-05-12T09:39:43.591Z,1021.18
2019-05-12T09:40:43.532Z,1021.18
2019-05-12T09:41:43.966Z,1021.20
2019-05-12T09:42:41.217Z,1021.17
2019-05-12T09:43:45.203Z,1021.24
2019-05-12T09:44:42.007Z,1021.21
2019-05-12T09:45:49.773Z,1021.23
2019-05-12T09:46:41.167Z,1021.15
2019-05-12T09:47:40.149Z,1021.14
2019-05-12T09:48:46.951Z,1021.12
2019-05-12T09:49:41.117Z,1021.21
2019-05-12T09:50:40.113Z,1021.21
2019-05-12T09:51:42.915Z,1021.21
2019-05-12T09:52:41.103Z,1021.21
2019-05-12T09:53:42.838Z,1021.11
2019-05-12T09:54:41.177Z,1021.26
2019-05-12T09:55:40.062Z,1021.25
2019-05-12T09:56:41.306Z,1021.13
2019-05-12T09:57:41.162Z,1021.20
2019-05-12T09:58:40.029Z,1021.19
2019-05-12T09:59:40.038Z,1021.13
2019-05-12T10:00:40.000Z,1021.19
2019-05-12T10:01:42.942Z,1021.25
2019-05-12T10:02:43.135Z,1021.23
2019-05-12T10:03:40.210Z,1021.22
2019-05-12T10:04:39.973Z,1021.25
2019-05-12T10:05:41.381Z,1021.25
2019-05-12T10:06:39.937Z,1021.16
2019-05-12T10:07:39.926Z,1021.22
2019-05-12T10:08:39.917Z,1021.24
2019-05-12T10:09:39.905Z,1021.18
2019-05-12T10:10:40.807Z,1021.12
2019-05-12T10:11:39.906Z,1021.11
2019-05-12T10:12:46.264Z,1021.22
2019-05-12T10:13:40.880Z,1021.20
2019-05-12T10:14:40.711Z,1021.16
2019-05-12T10:15:40.871Z,1021.17
2019-05-12T10:16:45.708Z,1021.12
2019-05-12T10:17:43.261Z,1021.15
2019-05-12T10:18:45.436Z,1021.20
2019-05-12T10:19:40.804Z,1021.17
2019-05-12T10:20:40.036Z,1021.20
2019-05-12T10:21:39.780Z,1021.19
2019-05-12T10:22:40.446Z,1021.16
2019-05-12T10:23:39.790Z,1021.26
2019-05-12T10:24:42.326Z,1021.19
2019-05-12T10:25:39.738Z,1021.27
2019-05-12T10:26:41.127Z,1021.30
2019-05-12T10:27:40.736Z,1021.27
2019-05-12T10:28:45.348Z,1021.22
2019-05-12T10:29:40.690Z,1021.06
2019-05-12T10:30:39.686Z,1021.32
2019-05-12T10:31:39.677Z,1021.21
2019-05-12T10:32:39.664Z,1021.32
2019-05-12T10:33:39.665Z,1021.26
2019-05-12T10:34:40.456Z,1021.20
2019-05-12T10:35:39.628Z,1021.30
2019-05-12T10:36:46.902Z,1021.32
2019-05-12T10:37:40.606Z,1021.32
2019-05-12T10:38:39.621Z,1021.29
2019-05-12T10:39:39.591Z,1021.31
2019-05-12T10:40:39.584Z,1021.25
2019-05-12T10:41:39.561Z,1021.25
2019-05-12T10:42:44.863Z,1021.19
2019-05-12T10:43:40.538Z,1021.27
2019-05-12T10:44:40.853Z,1021.23
2019-05-12T10:45:39.525Z,1021.20
2019-05-12T10:46:42.311Z,1021.21
2019-05-12T10:47:39.507Z,1021.34
2019-05-12T10:48:39.492Z,1021.29
2019-05-12T10:49:39.481Z,1021.31
2019-05-12T10:50:39.483Z,1021.37
2019-05-12T10:51:39.478Z,1021.29
2019-05-12T10:52:39.486Z,1021.35
2019-05-12T10:53:39.436Z,1021.29
2019-05-12T10:54:39.426Z,1021.35
2019-05-12T10:55:39.418Z,1021.40
2019-05-12T10:56:39.412Z,1021.29
2019-05-12T10:57:39.400Z,1021.36
2019-05-12T10:58:39.396Z,1021.29
2019-05-12T10:59:45.233Z,1021.33
2019-05-12T11:00:40.368Z,1021.45
2019-05-12T11:01:47.144Z,1021.49
2019-05-12T11:02:40.347Z,1021.43
2019-05-12T11:03:42.954Z,1021.39
2019-05-12T11:04:41.250Z,1021.37
2019-05-12T11:05:39.315Z,1021.36
2019-05-12T11:06:39.709Z,1021.51
2019-05-12T11:07:39.293Z,1021.44
2019-05-12T11:08:41.251Z,1021.41
2019-05-12T11:09:40.294Z,1021.60
2019-05-12T11:10:39.261Z,1021.49
2019-05-12T11:11:42.293Z,1021.58
2019-05-12T11:12:40.238Z,1021.54
2019-05-12T11:13:40.262Z,1021.47
2019-05-12T11:14:40.259Z,1021.44
2019-05-12T11:15:39.682Z,1021.51
2019-05-12T11:16:42.522Z,1021.51
2019-05-12T11:17:40.169Z,1021.54
2019-05-12T11:18:39.172Z,1021.51
2019-05-12T11:19:40.776Z,1021.56
2019-05-12T11:20:40.166Z,1021.65
2019-05-12T11:21:39.141Z,1021.63
2019-05-12T11:22:39.124Z,1021.65
2019-05-12T11:23:39.113Z,1021.64
2019-05-12T11:24:39.102Z,1021.57
2019-05-12T11:25:39.109Z,1021.67
2019-05-12T11:26:39.088Z,1021.65
2019-05-12T11:27:39.093Z,1021.68
2019-05-12T11:28:39.060Z,1021.71
2019-05-12T11:29:46.307Z,1021.68
2019-05-12T11:30:40.052Z,1021.72
2019-05-12T11:31:39.033Z,1021.75
2019-05-12T11:32:39.025Z,1021.63
2019-05-12T11:33:39.009Z,1021.69
2019-05-12T11:34:38.996Z,1021.72
2019-05-12T11:35:38.998Z,1021.69
2019-05-12T11:36:38.981Z,1021.74
2019-05-12T11:37:38.990Z,1021.71
2019-05-12T11:38:38.954Z,1021.71
2019-05-12T11:39:44.659Z,1021.64
2019-05-12T11:40:39.956Z,1021.79
2019-05-12T11:41:38.929Z,1021.66
2019-05-12T11:42:38.915Z,1021.67
2019-05-12T11:43:38.907Z,1021.72
2019-05-12T11:44:38.914Z,1021.81
2019-05-12T11:45:38.881Z,1021.80
2019-05-12T11:46:38.886Z,1021.82
2019-05-12T11:47:38.863Z,1021.88
2019-05-12T11:48:40.351Z,1021.91
2019-05-12T11:49:39.847Z,1021.99
2019-05-12T11:50:40.373Z,1021.84
2019-05-12T11:51:39.827Z,1021.89
2019-05-12T11:52:38.818Z,1021.96
2019-05-12T11:53:38.804Z,1021.85
2019-05-12T11:54:41.261Z,1021.87
2019-05-12T11:55:39.779Z,1021.92
2019-05-12T11:56:40.289Z,1021.88
2019-05-12T11:57:39.760Z,1021.92
2019-05-12T11:58:41.245Z,1021.89
2019-05-12T11:59:39.738Z,1021.88
2019-05-12T12:00:38.744Z,1021.85
2019-05-12T12:01:39.661Z,1021.81
2019-05-12T12:02:39.707Z,1021.84
2019-05-12T12:03:38.700Z,1021.85
2019-05-12T12:04:38.695Z,1021.93
2019-05-12T12:05:38.672Z,1021.89